Time;durP1;ratioP1;P1;durP2;ratioP2;P2;SDS_P1;SDS_P2;PMS_P1;PMS_P2;Temp;Humidity;BMP_temperature;BMP_pressure;BME280_temperature;BME280_humidity;BME280_pressure;Samples;Min_cycle;Max_cycle;Signal;HPM_P1;HPM_P2
2021/12/11 09:43:56;;;;;;;;;11.67;8.33;;;;;12.33;63.67;102420.59;5012439;27;45493;-96
2021/12/11 09:46:33;;;;;;;;;15.33;10.33;;;;;12.61;62.77;102447.66;4990254;27;45491;-95
2021/12/11 09:49:00;;;;;;;;;13.00;10.67;;;;;12.83;62.45;102462.59;4987267;28;45458;-96
2021/12/11 09:51:30;;;;;;;;;13.33;13.33;;;;;12.71;62.07;102427.63;4976104;28;45373;-95
2021/12/11 09:53:58;;;;;;;;;14.67;10.67;;;;;13.00;61.98;102452.88;5027731;27;47518;-96
2021/12/11 09:56:30;;;;;;;;;12.50;10.25;;;;;13.17;61.88;102463.56;5003081;28;45366;-95
2021/12/11 09:58:57;;;;;;;;;17.33;12.67;;;;;13.28;61.57;102456.84;5000644;28;45533;-96
2021/12/11 10:01:27;;;;;;;;;20.33;17.00;;;;;13.40;61.23;102472.19;4988135;28;45767;-95
2021/12/11 10:04:28;;;;;;;;;19.00;14.75;;;;;13.43;60.79;102455.16;5031836;27;47513;-95
2021/12/11 10:07:49;;;;;;;;;12.00;10.50;;;;;13.53;61.10;102455.56;4954893;28;45239;-96
2021/12/11 10:09:45;;;;;;;;;12.25;12.00;;;;;13.83;60.87;102489.56;4952644;28;45261;-96
2021/12/11 10:12:16;;;;;;;;;14.50;10.75;;;;;13.89;60.13;102476.84;4956510;28;45451;-94
2021/12/11 10:14:52;;;;;;;;;11.00;10.00;;;;;13.80;60.11;102436.38;5003974;28;47424;-94
2021/12/11 10:17:29;;;;;;;;;8.50;7.25;;;;;13.93;59.52;102446.41;5000692;27;45449;-94
2021/12/11 10:19:58;;;;;;;;;9.50;9.50;;;;;14.11;60.02;102465.03;4963748;28;45286;-94
2021/12/11 10:22:29;;;;;;;;;14.50;11.00;;;;;14.09;59.13;102434.88;4992872;28;45378;-95
2021/12/11 10:24:55;;;;;;;;;10.75;10.75;;;;;14.21;59.16;102450.22;4987380;28;47988;-94
2021/12/11 10:27:23;;;;;;;;;11.25;9.50;;;;;14.34;58.94;102462.91;4955926;28;45502;-95
2021/12/11 10:29:49;;;;;;;;;12.75;9.25;;;;;14.22;58.90;102429.72;4999785;27;45441;-94
2021/12/11 10:32:21;;;;;;;;;13.75;11.50;;;;;14.35;58.83;102440.56;4959615;28;44876;-94
2021/12/11 10:34:49;;;;;;;;;13.75;11.00;;;;;14.62;58.36;102480.03;4977843;28;47133;-94
2021/12/11 10:37:18;;;;;;;;;9.00;8.25;;;;;14.41;57.85;102429.56;4985461;28;46298;-94
2021/12/11 10:39:45;;;;;;;;;10.50;8.25;;;;;14.55;58.08;102457.28;4987874;28;47990;-95
2021/12/11 10:42:12;;;;;;;;;10.25;9.00;;;;;14.80;58.33;102483.44;4955681;28;45406;-95
2021/12/11 10:44:40;;;;;;;;;8.50;8.50;;;;;14.77;58.06;102469.44;4955363;28;46887;-95
2021/12/11 10:47:15;;;;;;;;;11.75;8.50;;;;;14.71;58.28;102458.16;4944730;28;46084;-95
2021/12/11 10:49:40;;;;;;;;;12.00;8.50;;;;;14.85;57.67;102475.19;4944387;28;45572;-94
2021/12/11 10:52:16;;;;;;;;;7.00;7.00;;;;;14.71;57.44;102447.47;5006291;28;45574;-93
2021/12/11 10:54:41;;;;;;;;;12.00;8.75;;;;;14.98;56.79;102482.50;4965581;28;46881;-93
2021/12/11 10:57:07;;;;;;;;;7.00;6.00;;;;;14.74;57.04;102451.75;4941068;28;45290;-94
2021/12/11 10:59:34;;;;;;;;;9.50;9.50;;;;;14.76;56.40;102470.38;4935696;28;46101;-94
2021/12/11 11:02:02;;;;;;;;;7.00;5.75;;;;;15.01;56.70;102495.69;4931476;28;45550;-94
2021/12/11 11:04:34;;;;;;;;;9.00;7.00;;;;;14.92;56.96;102479.25;4984576;28;47064;-95
2021/12/11 11:07:01;;;;;;;;;11.00;10.75;;;;;14.78;57.01;102452.41;4963873;28;46060;-91
2021/12/11 11:09:27;;;;;;;;;12.75;10.50;;;;;14.73;57.26;102444.69;4944488;28;46066;-92
2021/12/11 11:11:55;;;;;;;;;9.50;9.00;;;;;14.72;57.05;102438.47;4938294;28;46964;-94
2021/12/11 11:14:20;;;;;;;;;10.75;9.50;;;;;14.92;57.29;102465.00;4971118;28;48126;-92
2021/12/11 11:16:51;;;;;;;;;9.00;9.00;;;;;14.91;57.23;102461.50;4945669;28;46485;-92
2021/12/11 11:19:21;;;;;;;;;12.25;10.00;;;;;15.07;57.20;102468.59;4971679;28;45419;-93
2021/12/11 11:21:53;;;;;;;;;9.00;7.50;;;;;15.19;57.52;102476.84;4967842;28;45582;-94
2021/12/11 11:24:18;;;;;;;;;10.00;7.00;;;;;15.24;57.21;102480.09;4947685;28;48486;-93
2021/12/11 11:26:44;;;;;;;;;11.25;11.25;;;;;15.02;56.95;102439.47;4972859;28;45311;-93
2021/12/11 11:29:13;;;;;;;;;10.75;8.50;;;;;15.16;57.29;102452.03;4966939;28;45213;-96
2021/12/11 11:31:42;;;;;;;;;11.50;10.00;;;;;15.26;56.75;102456.84;4991170;28;45556;-96
2021/12/11 11:34:13;;;;;;;;;8.75;8.75;;;;;15.20;57.00;102446.50;5073703;22;47456;-96
2021/12/11 11:36:38;;;;;;;;;9.60;9.20;;;;;15.16;56.76;102436.00;5059378;28;45441;-96
2021/12/11 11:39:10;;;;;;;;;11.25;9.25;;;;;15.12;56.48;102413.06;5037957;28;44818;-96
2021/12/11 11:41:55;;;;;;;;;9.00;6.00;;;;;15.20;56.46;102417.09;5053963;28;44799;-96
2021/12/11 11:47:34;;;;;;;;;10.40;8.20;;;;;15.28;56.39;102428.19;5052845;28;44729;-96
2021/12/11 12:05:26;;;;;;;;;8.00;6.75;;;;;15.67;55.92;102475.78;5262668;22;46005;-96
2021/12/11 12:07:52;;;;;;;;;10.20;8.20;;;;;15.36;55.66;102428.56;5090983;27;45315;-96
2021/12/11 12:15:48;;;;;;;;;11.50;7.50;;;;;15.55;55.64;102437.25;5112735;22;45451;-94
2021/12/11 12:22:28;;;;;;;;;;;;;;;;;;;;;
2021/12/11 12:28:53;;;;;;;;;7.75;6.25;;;;;15.47;55.28;102411.00;5045383;28;45560;-95
2021/12/11 12:31:38;;;;;;;;;7.40;7.00;;;;;15.79;55.46;102469.69;5057500;28;45572;-94
2021/12/11 12:34:46;;;;;;;;;;;;;;;;;;;;;
2021/12/11 12:37:42;;;;;;;;;;;;;;;;;;;;;
2021/12/11 12:40:28;;;;;;;;;5.00;5.00;;;;;15.65;55.29;102432.22;5054181;28;75480;-95
2021/12/11 12:43:20;;;;;;;;;9.20;6.80;;;;;15.89;55.01;102461.94;5041905;28;45604;-94
2021/12/11 12:46:27;;;;;;;;;;;;;;;;;;;;;
2021/12/11 12:49:05;;;;;;;;;7.75;6.25;;;;;15.95;54.69;102458.00;5040281;28;70201;-95
2021/12/11 12:51:41;;;;;;;;;4.50;4.50;;;;;15.95;54.57;102463.38;5021050;28;48148;-95
2021/12/11 12:54:17;;;;;;;;;6.80;6.00;;;;;15.82;54.35;102432.03;5041118;28;45562;-95
2021/12/11 12:57:14;;;;;;;;;4.80;4.80;;;;;15.89;54.11;102437.84;5023569;28;45494;-95
2021/12/11 13:00:02;;;;;;;;;5.00;5.00;;;;;15.79;54.55;102416.16;5059636;27;45529;-95
2021/12/11 13:02:40;;;;;;;;;6.75;5.00;;;;;16.02;54.34;102451.31;5075456;27;48083;-95
2021/12/11 13:05:24;;;;;;;;;5.80;5.00;;;;;16.03;54.41;102442.34;5056595;27;45497;-95
2021/12/11 13:07:52;;;;;;;;;4.60;4.60;;;;;15.74;54.33;102386.16;5096269;27;45422;-95
2021/12/11 13:10:45;;;;;;;;;6.75;5.25;;;;;15.87;53.96;102407.66;5092815;27;45705;-95
2021/12/11 13:13:25;;;;;;;;;7.80;4.80;;;;;15.87;53.98;102407.66;5044145;28;47267;-95
2021/12/11 13:15:58;;;;;;;;;3.00;3.00;;;;;15.68;54.16;102381.19;5055894;27;45644;-95
2021/12/11 13:19:13;;;;;;;;;4.80;4.60;;;;;15.94;53.99;102418.84;5045572;27;45446;-96
2021/12/11 13:22:23;;;;;;;;;;;;;;;;;;;;;
2021/12/11 13:25:43;;;;;;;;;;;;;;;;;;;;;
2021/12/11 13:28:42;;;;;;;;;;;;;;;;;;;;;
2021/12/11 13:31:59;;;;;;;;;;;;;;;;;;;;;
2021/12/11 13:35:30;;;;;;;;;4.25;4.00;;;;;15.86;53.63;102394.38;5029648;28;70521;-95
2021/12/11 13:42:15;;;;;;;;;4.00;3.80;;;;;16.15;53.90;102439.84;4780811;29;45380;-95
2021/12/11 13:44:56;;;;;;;;;6.80;4.60;;;;;15.87;54.10;102391.59;4801414;29;45607;-95
2021/12/11 13:54:13;;;;;;;;;4.60;4.60;;;;;16.03;53.52;102431.66;4832095;29;45542;-93
2021/12/11 13:56:51;;;;;;;;;4.00;2.60;;;;;15.98;53.80;102423.03;4837469;29;45721;-94
2021/12/11 13:59:17;;;;;;;;;4.00;2.80;;;;;16.04;53.56;102425.31;4823526;29;45440;-93
2021/12/11 14:01:43;;;;;;;;;3.75;3.00;;;;;16.10;53.61;102425.91;4832119;29;46919;-93
2021/12/11 14:04:12;;;;;;;;;3.75;3.25;;;;;15.99;53.66;102416.72;4834048;29;45447;-94
2021/12/11 14:06:49;;;;;;;;;2.40;2.40;;;;;16.03;53.49;102414.72;4825185;29;45472;-95
2021/12/11 14:09:21;;;;;;;;;3.75;3.75;;;;;16.02;53.69;102421.88;4910232;28;45841;-94
2021/12/11 14:11:47;;;;;;;;;2.60;2.00;;;;;15.98;53.60;102415.00;4904438;28;48311;-94
2021/12/11 14:14:13;;;;;;;;;1.75;1.50;;;;;15.98;53.66;102412.31;4929371;28;45577;-93
2021/12/11 14:16:38;;;;;;;;;2.50;2.50;;;;;16.09;53.71;102424.22;4963933;28;45506;-94
2021/12/11 14:19:05;;;;;;;;;3.00;3.00;;;;;16.16;53.87;102436.22;4997293;27;45309;-93
2021/12/11 14:21:30;;;;;;;;;5.80;2.60;;;;;16.14;53.81;102435.47;5047230;27;47376;-93
2021/12/11 14:23:56;;;;;;;;;4.25;4.00;;;;;16.09;54.05;102426.88;5040926;28;45990;-93
2021/12/11 14:26:26;;;;;;;;;3.60;3.00;;;;;16.10;53.85;102439.28;5031692;27;45699;-94
2021/12/11 14:28:53;;;;;;;;;5.00;3.75;;;;;16.31;53.89;102468.34;5074093;27;45536;-94
2021/12/11 14:31:19;;;;;;;;;3.00;3.00;;;;;16.14;53.95;102435.47;5078847;27;45647;-93
2021/12/11 14:33:45;;;;;;;;;3.00;2.60;;;;;16.21;54.23;102458.22;5062072;27;45244;-94
2021/12/11 14:36:13;;;;;;;;;3.25;2.50;;;;;16.07;54.10;102423.41;5078098;27;48582;-93
2021/12/11 14:38:42;;;;;;;;;4.00;2.50;;;;;16.27;53.72;102463.19;5090382;27;45600;-92
2021/12/11 14:41:07;;;;;;;;;4.00;3.00;;;;;16.21;53.91;102450.16;5053511;28;47250;-93
2021/12/11 14:43:36;;;;;;;;;4.50;2.50;;;;;16.34;53.63;102482.41;5084075;27;45341;-94
2021/12/11 14:46:03;;;;;;;;;4.20;3.60;;;;;16.15;54.14;102447.88;5067780;27;45533;-94
2021/12/11 14:48:38;;;;;;;;;4.50;3.75;;;;;16.07;53.63;102428.78;5065528;27;45891;-94
2021/12/11 14:51:07;;;;;;;;;4.60;4.00;;;;;16.25;53.84;102464.22;5044547;27;47754;-94
2021/12/11 14:53:36;;;;;;;;;2.60;2.00;;;;;16.04;53.95;102438.69;5078931;27;45436;-93
2021/12/11 14:56:05;;;;;;;;;9.40;6.00;;;;;16.19;53.97;102462.81;5062465;27;45496;-93
2021/12/11 14:58:31;;;;;;;;;7.00;3.75;;;;;16.14;53.83;102455.09;5078550;27;45505;-93
2021/12/11 15:01:03;;;;;;;;;5.75;4.50;;;;;16.21;53.92;102462.69;5077209;27;46110;-93
2021/12/11 15:03:29;;;;;;;;;6.80;4.60;;;;;16.21;53.96;102462.69;5080203;27;45279;-93
2021/12/11 15:05:54;;;;;;;;;2.75;2.75;;;;;16.12;53.60;102448.09;5060325;27;45490;-92
2021/12/11 15:08:22;;;;;;;;;5.75;3.75;;;;;16.31;53.88;102473.69;5078909;27;45524;-93
2021/12/11 15:10:49;;;;;;;;;5.75;4.75;;;;;16.21;54.08;102447.50;5078268;27;47497;-92
2021/12/11 15:13:17;;;;;;;;;5.20;5.20;;;;;16.36;54.08;102482.28;5061531;27;46332;-93
2021/12/11 15:15:42;;;;;;;;;5.40;4.00;;;;;16.22;53.70;102459.94;5069904;27;45576;-93
2021/12/11 15:18:08;;;;;;;;;4.00;3.50;;;;;16.37;53.80;102486.69;5076737;27;45858;-93
2021/12/11 15:20:41;;;;;;;;;6.00;5.25;;;;;16.44;53.99;102501.41;5076223;27;48446;-94
2021/12/11 15:23:08;;;;;;;;;9.20;5.00;;;;;16.36;53.91;102490.31;5059774;27;45482;-94
2021/12/11 15:25:33;;;;;;;;;4.40;3.60;;;;;16.26;54.26;102474.84;5061263;27;45290;-95
2021/12/11 15:27:59;;;;;;;;;4.25;3.50;;;;;16.37;53.90;102489.38;5072750;27;45405;-93
2021/12/11 15:30:33;;;;;;;;;4.00;4.00;;;;;16.33;54.56;102482.47;5069081;27;48450;-91
2021/12/11 15:32:59;;;;;;;;;1.60;1.40;;;;;16.33;54.02;102463.72;5087617;27;45552;-92
2021/12/11 15:35:36;;;;;;;;;4.00;3.00;;;;;16.35;54.16;102470.72;5052943;28;45730;-91
2021/12/11 15:38:07;;;;;;;;;6.00;6.00;;;;;16.73;53.37;102519.22;5066495;28;45209;-96
2021/12/11 15:43:10;;;;;;;;;9.20;4.80;;;;;16.60;53.58;102476.31;5176746;22;45380;-96
2021/12/11 15:45:37;;;;;;;;;5.40;4.40;;;;;16.78;52.99;102501.00;5068115;27;44665;-96
2021/12/11 15:48:03;;;;;;;;;6.50;5.00;;;;;16.99;53.03;102521.16;5042188;28;45691;-96
2021/12/11 15:50:34;;;;;;;;;8.50;4.75;;;;;16.88;52.84;102493.25;5039434;28;46562;-96
2021/12/11 15:52:59;;;;;;;;;3.60;3.60;;;;;16.83;52.74;102481.97;5073989;27;44811;-96
2021/12/11 15:55:28;;;;;;;;;4.75;4.75;;;;;16.95;52.68;102506.25;5033111;28;45469;-96
2021/12/11 15:57:53;;;;;;;;;5.80;2.80;;;;;16.83;52.57;102507.91;5081340;28;44859;-96
2021/12/11 16:00:22;;;;;;;;;7.25;3.75;;;;;17.01;52.46;102529.97;5066742;28;45468;-96
2021/12/11 16:02:48;;;;;;;;;2.40;2.40;;;;;16.80;52.38;102503.63;5060387;28;45335;-96
2021/12/11 16:05:16;;;;;;;;;8.00;4.00;;;;;16.84;52.82;102515.00;5068775;28;45238;-95
2021/12/11 16:07:42;;;;;;;;;3.50;3.25;;;;;16.95;53.32;102530.38;5060502;28;45493;-96
2021/12/11 16:10:08;;;;;;;;;2.75;2.75;;;;;17.09;53.18;102543.72;5040105;28;47091;-96
2021/12/11 16:12:34;;;;;;;;;3.40;2.40;;;;;16.91;52.55;102509.13;5026990;28;45904;-96
2021/12/11 16:15:05;;;;;;;;;4.00;3.00;;;;;17.21;52.70;102549.25;5083057;28;45591;-96
2021/12/11 16:17:54;;;;;;;;;3.60;2.80;;;;;17.30;52.37;102550.44;5063843;28;44757;-96
2021/12/11 16:20:22;;;;;;;;;1.20;1.00;;;;;17.10;52.53;102507.88;5063215;28;46253;-96
2021/12/11 16:22:51;;;;;;;;;4.20;3.20;;;;;17.25;52.26;102519.44;5080260;28;45394;-96
2021/12/11 16:25:21;;;;;;;;;3.80;3.80;;;;;17.32;52.07;102522.56;5079067;27;45551;-96
2021/12/11 16:27:49;;;;;;;;;9.00;4.60;;;;;17.52;51.90;102543.63;5025966;28;45375;-96
2021/12/11 16:30:24;;;;;;;;;3.80;3.40;;;;;17.39;51.98;102512.25;5085260;28;48426;-96
2021/12/11 16:32:50;;;;;;;;;10.20;5.00;;;;;17.54;51.75;102533.66;5097638;27;45439;-96
2021/12/11 16:35:17;;;;;;;;;5.75;4.00;;;;;17.48;51.52;102510.78;5046559;28;45346;-96
2021/12/11 16:37:44;;;;;;;;;7.50;4.75;;;;;17.55;51.33;102517.47;5072739;27;45416;-95
2021/12/11 16:45:00;;;;;;;;;5.60;4.20;;;;;17.46;51.50;102501.97;5423673;22;45723;-94
2021/12/11 16:47:56;;;;;;;;;;;;;;;;;;;;;
2021/12/11 16:54:01;;;;;;;;;6.80;4.60;;;;;17.41;51.44;102520.22;4878595;29;45467;-96
2021/12/11 16:59:20;;;;;;;;;8.40;7.40;;;;;17.38;51.60;102536.53;4783573;29;45449;-94
2021/12/11 17:01:47;;;;;;;;;7.25;7.00;;;;;17.36;52.06;102532.13;4754803;29;45595;-96
2021/12/11 17:04:15;;;;;;;;;13.00;9.00;;;;;17.36;51.76;102544.66;4771308;29;47987;-95
2021/12/11 17:06:44;;;;;;;;;8.60;5.80;;;;;17.30;51.62;102535.22;4773570;29;45639;-93
2021/12/11 17:09:11;;;;;;;;;9.60;8.00;;;;;17.45;51.77;102567.34;4786497;29;45467;-95
2021/12/11 17:11:37;;;;;;;;;7.50;6.75;;;;;17.22;52.02;102532.19;4759765;29;45855;-92
2021/12/11 17:14:03;;;;;;;;;9.00;6.75;;;;;17.26;52.12;102544.44;4791096;29;48016;-93
2021/12/11 17:16:29;;;;;;;;;11.50;8.00;;;;;17.38;52.18;102566.91;4776972;29;44846;-92
